TimeCDT,TemperatureF,Dew PointF,Humidity,Sea Level PressureIn,VisibilityMPH,Wind Direction,Wind SpeedMPH,Gust SpeedMPH,PrecipitationIn,Events,Conditions,WindDirDegrees,DateUTC
12:35 AM,64.4,62.6,94,30.05,0.5,SE,3.5,-,N/A,Fog,Fog,140,2012-11-03 05:35:00
12:53 AM,63.0,62.1,97,30.07,0.5,SE,3.5,-,N/A,Fog,Fog,140,2012-11-03 05:53:00
1:39 AM,62.6,62.6,100,30.04,1.5,SE,3.5,-,N/A,,Mostly Cloudy,140,2012-11-03 06:39:00
1:53 AM,62.1,62.1,100,30.07,1.2,SE,3.5,-,N/A,,Mostly Cloudy,140,2012-11-03 06:53:00
2:13 AM,62.6,62.6,100,30.04,2.0,SE,3.5,-,N/A,,Scattered Clouds,130,2012-11-03 07:13:00
2:19 AM,62.6,62.6,100,30.04,1.8,SE,3.5,-,N/A,,Mostly Cloudy,130,2012-11-03 07:19:00
2:32 AM,62.6,60.8,94,30.04,0.5,SE,3.5,-,N/A,Fog,Fog,130,2012-11-03 07:32:00
2:50 AM,62.6,62.6,100,30.04,0.2,Calm,Calm,-,N/A,Fog,Fog,0,2012-11-03 07:50:00
2:53 AM,62.1,62.1,100,30.06,0.2,Calm,Calm,-,N/A,Fog,Fog,0,2012-11-03 07:53:00
3:53 AM,61.0,61.0,100,30.06,0.2,Calm,Calm,-,N/A,Fog,Fog,0,2012-11-03 08:53:00
4:14 AM,62.6,60.8,94,30.05,0.5,Calm,Calm,-,N/A,Fog,Fog,0,2012-11-03 09:14:00
4:24 AM,62.6,60.8,94,30.05,0.2,Calm,Calm,-,N/A,Fog,Fog,0,2012-11-03 09:24:00
4:53 AM,62.1,62.1,100,30.07,0.2,Calm,Calm,-,N/A,Fog,Fog,0,2012-11-03 09:53:00
5:01 AM,62.6,60.8,94,30.05,0.5,Calm,Calm,-,N/A,Fog,Fog,0,2012-11-03 10:01:00
5:20 AM,62.6,60.8,94,30.05,0.2,Calm,Calm,-,N/A,Fog,Fog,0,2012-11-03 10:20:00
5:53 AM,62.1,61.0,96,30.08,0.2,Calm,Calm,-,N/A,Fog,Fog,0,2012-11-03 10:53:00
6:18 AM,62.6,60.8,94,30.06,0.5,Calm,Calm,-,N/A,Fog,Fog,0,2012-11-03 11:18:00
6:53 AM,61.0,60.1,97,30.10,0.2,Calm,Calm,-,N/A,Fog,Fog,0,2012-11-03 11:53:00
7:53 AM,61.0,61.0,100,30.12,0.2,Calm,Calm,-,N/A,Fog,Fog,0,2012-11-03 12:53:00
8:27 AM,62.6,62.6,100,30.11,1.0,Calm,Calm,-,N/A,,Mist,0,2012-11-03 13:27:00
8:31 AM,64.4,62.6,94,30.11,4.0,Calm,Calm,-,N/A,,Overcast,0,2012-11-03 13:31:00
8:53 AM,64.9,64.9,100,30.14,7.0,Calm,Calm,-,N/A,,Mostly Cloudy,0,2012-11-03 13:53:00
9:09 AM,66.2,66.2,100,30.12,10.0,Calm,Calm,-,N/A,,Scattered Clouds,0,2012-11-03 14:09:00
9:53 AM,71.1,70.0,96,30.14,10.0,Calm,Calm,-,N/A,,Clear,0,2012-11-03 14:53:00
10:53 AM,77.0,68.0,74,30.15,10.0,Calm,Calm,-,N/A,,Clear,0,2012-11-03 15:53:00
11:53 AM,81.0,66.9,62,30.15,10.0,WSW,4.6,-,N/A,,Mostly Cloudy,250,2012-11-03 16:53:00
12:53 PM,82.9,64.9,54,30.12,10.0,SW,6.9,-,N/A,,Scattered Clouds,220,2012-11-03 17:53:00
1:53 PM,84.0,64.0,51,30.09,10.0,Variable,6.9,-,N/A,,Partly Cloudy,0,2012-11-03 18:53:00
2:53 PM,82.9,64.9,54,30.06,10.0,South,9.2,-,N/A,,Partly Cloudy,190,2012-11-03 19:53:00
3:53 PM,82.0,64.9,56,30.05,10.0,South,9.2,-,N/A,,Partly Cloudy,180,2012-11-03 20:53:00
4:53 PM,78.1,64.9,64,30.06,10.0,SSW,8.1,-,N/A,,Clear,200,2012-11-03 21:53:00
5:53 PM,77.0,66.9,71,30.08,10.0,SSW,5.8,-,N/A,,Clear,200,2012-11-03 22:53:00
6:53 PM,73.0,64.0,73,30.08,10.0,South,4.6,-,N/A,,Clear,190,2012-11-03 23:53:00
7:53 PM,69.1,63.0,81,30.10,10.0,South,3.5,-,N/A,,Clear,170,2012-11-04 00:53:00
8:53 PM,64.9,62.1,90,30.11,10.0,Calm,Calm,-,N/A,,Clear,0,2012-11-04 01:53:00
9:53 PM,66.0,63.0,90,30.10,10.0,SSW,3.5,-,N/A,,Clear,200,2012-11-04 02:53:00
10:53 PM,68.0,64.0,87,30.10,10.0,Calm,Calm,-,N/A,,Clear,0,2012-11-04 03:53:00
11:53 PM,66.9,63.0,87,30.10,10.0,Calm,Calm,-,N/A,,Clear,0,2012-11-04 04:53:00